Time;durP1;ratioP1;P1;durP2;ratioP2;P2;SDS_P1;SDS_P2;PMS_P1;PMS_P2;Temp;Humidity;BMP_temperature;BMP_pressure;BME280_temperature;BME280_humidity;BME280_pressure;Samples;Min_cycle;Max_cycle;Signal;HPM_P1;HPM_P2
2021/07/04 00:00:45;;;;;;;13.35;6.43;;;;;;;;;;5036869;28;20072;-86
2021/07/04 00:03:14;;;;;;;9.50;6.78;;;;;;;;;;5036176;28;20057;-87
2021/07/04 00:05:44;;;;;;;9.30;5.93;;;;;;;;;;5033995;28;20136;-87
2021/07/04 00:08:14;;;;;;;10.30;6.90;;;;;;;;;;5035627;28;20084;-87
2021/07/04 00:10:45;;;;;;;9.80;6.65;;;;;;;;;;5035232;28;20057;-87
2021/07/04 00:13:14;;;;;;;8.55;6.60;;;;;;;;;;5035963;28;20049;-87
2021/07/04 00:15:43;;;;;;;9.88;6.47;;;;;;;;;;5034343;28;20496;-87
2021/07/04 00:18:12;;;;;;;13.68;7.13;;;;;;;;;;5036502;28;20054;-88
2021/07/04 00:20:41;;;;;;;13.30;8.05;;;;;;;;;;5033350;28;20076;-87
2021/07/04 00:23:11;;;;;;;10.77;7.22;;;;;;;;;;5036577;28;20049;-87
2021/07/04 00:25:40;;;;;;;12.60;7.97;;;;;;;;;;5034560;28;20077;-87
2021/07/04 00:28:08;;;;;;;13.23;8.57;;;;;;;;;;5035369;28;20076;-87
2021/07/04 00:30:37;;;;;;;12.85;8.35;;;;;;;;;;5035034;28;20580;-87
2021/07/04 00:33:05;;;;;;;9.30;7.10;;;;;;;;;;5034904;28;20145;-87
2021/07/04 00:35:34;;;;;;;12.73;8.13;;;;;;;;;;5033925;28;20080;-87
2021/07/04 00:38:04;;;;;;;12.68;8.23;;;;;;;;;;5034867;28;20124;-87
2021/07/04 00:40:33;;;;;;;12.40;8.13;;;;;;;;;;5033642;28;20116;-87
2021/07/04 00:43:02;;;;;;;14.15;8.05;;;;;;;;;;5033751;28;20165;-87
2021/07/04 00:45:30;;;;;;;9.40;6.85;;;;;;;;;;5032627;28;20060;-87
2021/07/04 00:47:58;;;;;;;10.82;7.13;;;;;;;;;;5033105;28;20523;-87
2021/07/04 00:50:28;;;;;;;11.82;8.18;;;;;;;;;;5033357;28;20075;-87
2021/07/04 00:52:58;;;;;;;13.05;7.70;;;;;;;;;;5033509;28;20471;-86
2021/07/04 00:55:26;;;;;;;12.45;6.68;;;;;;;;;;5034138;28;20081;-86
2021/07/04 00:57:56;;;;;;;9.38;6.88;;;;;;;;;;5035179;28;20080;-86
2021/07/04 01:00:25;;;;;;;9.77;7.38;;;;;;;;;;5035144;28;20080;-85
2021/07/04 01:02:54;;;;;;;10.15;6.70;;;;;;;;;;5036008;28;20144;-85
2021/07/04 01:05:23;;;;;;;12.43;7.57;;;;;;;;;;5034260;28;20045;-86
2021/07/04 01:07:52;;;;;;;10.07;7.30;;;;;;;;;;5035473;28;20041;-86
2021/07/04 01:10:21;;;;;;;9.52;6.90;;;;;;;;;;5036486;28;20560;-86
2021/07/04 01:12:50;;;;;;;10.20;7.28;;;;;;;;;;5027907;28;20049;-86
2021/07/04 01:15:20;;;;;;;10.85;6.78;;;;;;;;;;5035129;28;20056;-86
2021/07/04 01:17:49;;;;;;;10.23;6.30;;;;;;;;;;5036215;28;20124;-86
2021/07/04 01:20:18;;;;;;;12.18;6.63;;;;;;;;;;5036083;28;20127;-86
2021/07/04 01:22:58;;;;;;;9.50;6.97;;;;;;;;;;5035123;28;20152;-86
2021/07/04 01:25:28;;;;;;;10.07;6.47;;;;;;;;;;5018453;28;20086;-86
2021/07/04 01:27:56;;;;;;;10.25;6.15;;;;;;;;;;5035395;28;20046;-86
2021/07/04 01:30:25;;;;;;;11.35;7.03;;;;;;;;;;5035393;28;20049;-86
2021/07/04 01:32:54;;;;;;;9.68;5.80;;;;;;;;;;5034789;28;20413;-86
2021/07/04 01:35:23;;;;;;;8.82;6.18;;;;;;;;;;5037270;28;20054;-86
2021/07/04 01:37:51;;;;;;;8.10;5.95;;;;;;;;;;5037809;28;20045;-86
2021/07/04 01:40:21;;;;;;;8.88;6.25;;;;;;;;;;5023986;28;20113;-86
2021/07/04 01:42:51;;;;;;;7.97;5.47;;;;;;;;;;5039248;28;20136;-85
2021/07/04 01:45:20;;;;;;;10.13;6.10;;;;;;;;;;5039054;28;20091;-85
2021/07/04 01:47:49;;;;;;;9.85;6.28;;;;;;;;;;5039845;28;20049;-85
2021/07/04 01:50:18;;;;;;;9.43;6.28;;;;;;;;;;5039283;28;20041;-86
2021/07/04 01:52:47;;;;;;;8.70;6.68;;;;;;;;;;5039731;28;20056;-86
2021/07/04 01:55:16;;;;;;;8.75;6.53;;;;;;;;;;5034930;28;20073;-85
2021/07/04 01:57:46;;;;;;;9.38;6.05;;;;;;;;;;5023901;28;20076;-85
2021/07/04 02:00:16;;;;;;;9.32;6.70;;;;;;;;;;5042467;28;20049;-86
2021/07/04 02:02:44;;;;;;;10.20;6.38;;;;;;;;;;5040251;28;20056;-85
2021/07/04 02:05:13;;;;;;;10.32;6.65;;;;;;;;;;5039118;28;20046;-86
2021/07/04 02:07:41;;;;;;;8.38;6.07;;;;;;;;;;5039791;28;20511;-84
2021/07/04 02:10:10;;;;;;;10.98;7.25;;;;;;;;;;5039522;28;20465;-86
2021/07/04 02:12:39;;;;;;;8.85;6.07;;;;;;;;;;5038643;28;20049;-85
2021/07/04 02:15:14;;;;;;;8.05;6.15;;;;;;;;;;5029643;28;20037;-85
2021/07/04 02:17:42;;;;;;;8.65;5.80;;;;;;;;;;5039052;28;20099;-85
2021/07/04 02:20:30;;;;;;;7.35;5.82;;;;;;;;;;5039809;28;20059;-86
2021/07/04 02:22:58;;;;;;;10.60;5.40;;;;;;;;;;5038417;28;20211;-86
2021/07/04 02:25:27;;;;;;;10.10;6.38;;;;;;;;;;5041839;28;20080;-85
2021/07/04 02:27:55;;;;;;;6.53;5.30;;;;;;;;;;5039768;28;20109;-85
2021/07/04 02:30:25;;;;;;;10.13;6.00;;;;;;;;;;5033702;28;20056;-86
2021/07/04 02:32:53;;;;;;;10.75;6.57;;;;;;;;;;5034546;28;20107;-85
2021/07/04 02:35:22;;;;;;;9.68;6.45;;;;;;;;;;5030748;28;20503;-85
2021/07/04 02:37:50;;;;;;;8.15;5.32;;;;;;;;;;5035328;28;20186;-85
2021/07/04 02:40:18;;;;;;;7.93;5.35;;;;;;;;;;5038551;28;20465;-86
2021/07/04 02:42:47;;;;;;;9.90;5.88;;;;;;;;;;5038222;28;20480;-86
2021/07/04 02:45:15;;;;;;;9.77;6.55;;;;;;;;;;5034767;28;20107;-86
2021/07/04 02:47:45;;;;;;;11.90;6.18;;;;;;;;;;5029328;28;20045;-86
2021/07/04 02:50:13;;;;;;;9.02;5.63;;;;;;;;;;5035756;28;20128;-85
2021/07/04 02:52:42;;;;;;;9.90;6.63;;;;;;;;;;5034820;28;20100;-86
2021/07/04 02:55:11;;;;;;;9.32;6.15;;;;;;;;;;5022711;28;20081;-86
2021/07/04 02:57:40;;;;;;;9.50;6.57;;;;;;;;;;5037508;28;20076;-85
2021/07/04 03:00:09;;;;;;;10.57;6.53;;;;;;;;;;5033427;28;20091;-86
2021/07/04 03:02:38;;;;;;;8.63;6.43;;;;;;;;;;5034756;28;20187;-86
2021/07/04 03:05:09;;;;;;;8.50;6.20;;;;;;;;;;5033153;28;20050;-86
2021/07/04 03:07:38;;;;;;;9.77;6.97;;;;;;;;;;5033285;28;20048;-86
2021/07/04 03:10:07;;;;;;;10.50;6.70;;;;;;;;;;5034364;28;20103;-86
2021/07/04 03:12:35;;;;;;;10.50;6.15;;;;;;;;;;5033780;28;20128;-86
2021/07/04 03:15:04;;;;;;;9.52;6.18;;;;;;;;;;5032817;28;20124;-86
2021/07/04 03:17:33;;;;;;;9.13;6.88;;;;;;;;;;5034864;28;20057;-86
2021/07/04 03:20:01;;;;;;;8.52;6.72;;;;;;;;;;5028910;28;20046;-85
2021/07/04 03:22:31;;;;;;;10.80;7.60;;;;;;;;;;5033622;28;20085;-84
2021/07/04 03:24:59;;;;;;;8.25;6.60;;;;;;;;;;5034404;28;20129;-86
2021/07/04 03:27:28;;;;;;;10.65;7.10;;;;;;;;;;5033390;28;20366;-86
2021/07/04 03:29:56;;;;;;;11.45;7.80;;;;;;;;;;5036330;28;20608;-86
2021/07/04 03:32:24;;;;;;;12.23;7.50;;;;;;;;;;5038932;28;20136;-85
2021/07/04 03:34:53;;;;;;;10.75;7.22;;;;;;;;;;5038029;28;20041;-86
2021/07/04 03:37:21;;;;;;;9.23;7.03;;;;;;;;;;5037717;28;20056;-86
2021/07/04 03:39:51;;;;;;;10.65;8.20;;;;;;;;;;5037572;28;20096;-85
2021/07/04 03:42:19;;;;;;;9.98;7.80;;;;;;;;;;5036582;28;20132;-86
2021/07/04 03:44:47;;;;;;;8.68;6.20;;;;;;;;;;5037268;28;20081;-86
2021/07/04 03:47:16;;;;;;;9.50;7.40;;;;;;;;;;5037777;28;20048;-86
2021/07/04 03:49:44;;;;;;;9.85;7.53;;;;;;;;;;5037927;28;20045;-86
2021/07/04 03:52:13;;;;;;;11.18;7.65;;;;;;;;;;5037628;28;20053;-86
2021/07/04 03:54:41;;;;;;;12.45;8.57;;;;;;;;;;5036956;28;20077;-86
2021/07/04 03:57:22;;;;;;;11.98;8.05;;;;;;;;;;5036242;28;20037;-86
2021/07/04 03:59:50;;;;;;;13.45;7.35;;;;;;;;;;5032275;28;20096;-86
2021/07/04 04:02:19;;;;;;;10.88;6.30;;;;;;;;;;5036801;28;20042;-86
2021/07/04 04:04:47;;;;;;;10.25;6.95;;;;;;;;;;5034444;28;20076;-86
2021/07/04 04:07:16;;;;;;;11.05;8.05;;;;;;;;;;5035468;28;20049;-85
2021/07/04 04:09:46;;;;;;;11.45;7.50;;;;;;;;;;5034737;28;20095;-88
2021/07/04 04:12:16;;;;;;;14.80;8.10;;;;;;;;;;5031179;28;20072;-87
2021/07/04 04:14:44;;;;;;;9.55;7.13;;;;;;;;;;5034480;28;20072;-86
2021/07/04 04:17:13;;;;;;;10.32;6.93;;;;;;;;;;5036160;28;20076;-86
2021/07/04 04:19:42;;;;;;;10.70;7.55;;;;;;;;;;5036160;28;20116;-85
2021/07/04 04:22:10;;;;;;;11.80;8.02;;;;;;;;;;5035421;28;20108;-86
2021/07/04 04:24:38;;;;;;;9.57;7.13;;;;;;;;;;5033795;28;20413;-86
2021/07/04 04:27:07;;;;;;;10.07;6.97;;;;;;;;;;5035955;28;20049;-86
2021/07/04 04:29:37;;;;;;;9.02;7.20;;;;;;;;;;5032439;28;20132;-86
2021/07/04 04:32:06;;;;;;;9.38;6.93;;;;;;;;;;5032711;28;20077;-86
2021/07/04 04:34:34;;;;;;;12.05;7.10;;;;;;;;;;5033216;28;20041;-86
2021/07/04 04:37:04;;;;;;;8.27;6.47;;;;;;;;;;5032434;28;20099;-87
2021/07/04 04:39:32;;;;;;;10.18;6.63;;;;;;;;;;5033699;28;20049;-86
2021/07/04 04:42:01;;;;;;;10.55;7.28;;;;;;;;;;5020633;28;20041;-86
2021/07/04 04:44:34;;;;;;;11.18;8.20;;;;;;;;;;5031645;28;20060;-86
2021/07/04 04:47:04;;;;;;;10.27;7.80;;;;;;;;;;5032049;28;20045;-86
2021/07/04 04:49:33;;;;;;;10.30;7.32;;;;;;;;;;5032486;28;20144;-86
2021/07/04 04:52:02;;;;;;;11.70;7.60;;;;;;;;;;5032413;28;20124;-86
2021/07/04 04:54:30;;;;;;;14.90;8.25;;;;;;;;;;5032916;28;20155;-86
2021/07/04 04:57:05;;;;;;;10.02;6.68;;;;;;;;;;5032777;28;20053;-86
2021/07/04 04:59:34;;;;;;;11.85;8.23;;;;;;;;;;5034573;28;20038;-85
2021/07/04 05:02:05;;;;;;;9.95;7.47;;;;;;;;;;5031923;28;20079;-86
2021/07/04 05:04:33;;;;;;;12.88;8.48;;;;;;;;;;5032205;28;20056;-85
2021/07/04 05:07:02;;;;;;;11.55;7.97;;;;;;;;;;5033703;28;20081;-85
2021/07/04 05:09:30;;;;;;;12.50;8.13;;;;;;;;;;5034107;28;20053;-86
2021/07/04 05:11:59;;;;;;;13.82;8.00;;;;;;;;;;5030310;28;20064;-86
2021/07/04 05:14:27;;;;;;;12.13;8.68;;;;;;;;;;5033054;28;20088;-86
2021/07/04 05:16:55;;;;;;;9.30;7.28;;;;;;;;;;5032215;28;20153;-86
2021/07/04 05:19:25;;;;;;;10.88;8.25;;;;;;;;;;5033593;28;20125;-86
2021/07/04 05:21:53;;;;;;;11.60;7.20;;;;;;;;;;5033973;28;20081;-86
2021/07/04 05:24:22;;;;;;;10.52;7.85;;;;;;;;;;5033729;28;20053;-86
2021/07/04 05:26:50;;;;;;;11.52;7.60;;;;;;;;;;5032624;28;20053;-86
2021/07/04 05:29:19;;;;;;;9.13;7.28;;;;;;;;;;5034389;28;20049;-85
2021/07/04 05:31:47;;;;;;;11.25;7.90;;;;;;;;;;5033778;28;20073;-86
2021/07/04 05:34:15;;;;;;;10.98;6.93;;;;;;;;;;5033828;28;20038;-86
2021/07/04 05:36:47;;;;;;;13.15;8.48;;;;;;;;;;5031470;28;20128;-85
2021/07/04 05:39:16;;;;;;;9.43;7.07;;;;;;;;;;5033089;28;20470;-85
2021/07/04 05:41:44;;;;;;;11.57;7.63;;;;;;;;;;5033404;28;20136;-85
2021/07/04 05:44:12;;;;;;;10.07;7.25;;;;;;;;;;5034173;28;20516;-85
2021/07/04 05:46:41;;;;;;;11.02;7.20;;;;;;;;;;5033664;28;20053;-85
2021/07/04 05:49:09;;;;;;;10.05;7.30;;;;;;;;;;5049419;28;20053;-86
2021/07/04 05:51:38;;;;;;;10.93;7.03;;;;;;;;;;5033488;28;20136;-85
2021/07/04 05:54:07;;;;;;;11.20;8.32;;;;;;;;;;5033703;28;20049;-86
2021/07/04 05:56:36;;;;;;;9.75;7.50;;;;;;;;;;5027916;28;20074;-86
2021/07/04 05:59:04;;;;;;;10.48;7.00;;;;;;;;;;5034103;28;20079;-86
2021/07/04 06:01:33;;;;;;;10.13;7.38;;;;;;;;;;5032514;28;20116;-86
2021/07/04 06:04:01;;;;;;;11.25;7.38;;;;;;;;;;5032207;28;20103;-86
2021/07/04 06:06:29;;;;;;;9.75;6.72;;;;;;;;;;5029857;28;20509;-86
2021/07/04 06:08:58;;;;;;;11.80;7.05;;;;;;;;;;5031886;28;20052;-86
2021/07/04 06:11:28;;;;;;;10.73;7.15;;;;;;;;;;5021793;28;20492;-87
2021/07/04 06:13:56;;;;;;;11.57;7.25;;;;;;;;;;5029925;28;20049;-87
2021/07/04 06:16:24;;;;;;;10.85;7.50;;;;;;;;;;5021678;28;20332;-86
2021/07/04 06:18:53;;;;;;;13.57;7.28;;;;;;;;;;5013144;28;20578;-86
2021/07/04 06:21:21;;;;;;;11.25;7.25;;;;;;;;;;5031388;28;20060;-87
2021/07/04 06:23:50;;;;;;;10.60;7.63;;;;;;;;;;5033435;28;20061;-85
2021/07/04 06:26:18;;;;;;;8.27;6.57;;;;;;;;;;5029977;28;20486;-90
2021/07/04 06:28:47;;;;;;;9.70;7.15;;;;;;;;;;5028781;28;20128;-88
2021/07/04 06:31:16;;;;;;;10.73;7.05;;;;;;;;;;5024975;28;20137;-89
2021/07/04 06:33:46;;;;;;;8.00;6.20;;;;;;;;;;5029399;28;20038;-88
2021/07/04 06:36:14;;;;;;;9.55;6.68;;;;;;;;;;5021100;28;20144;-89
2021/07/04 06:38:43;;;;;;;9.60;7.07;;;;;;;;;;5032055;28;20046;-89
2021/07/04 06:41:11;;;;;;;9.25;7.00;;;;;;;;;;5029123;28;20049;-89
2021/07/04 06:43:40;;;;;;;8.40;6.85;;;;;;;;;;5030371;28;20059;-89
2021/07/04 06:46:09;;;;;;;10.63;7.03;;;;;;;;;;5030299;28;20049;-88
2021/07/04 06:48:38;;;;;;;7.82;6.47;;;;;;;;;;5028516;28;20507;-87
2021/07/04 06:51:07;;;;;;;9.95;7.25;;;;;;;;;;5027811;28;21237;-87
2021/07/04 06:53:35;;;;;;;9.10;7.05;;;;;;;;;;5027433;28;20045;-88
2021/07/04 06:56:04;;;;;;;8.57;6.70;;;;;;;;;;5026401;28;20033;-87
2021/07/04 06:58:32;;;;;;;10.10;6.68;;;;;;;;;;5028041;28;20073;-87
2021/07/04 07:01:01;;;;;;;10.55;7.15;;;;;;;;;;5028277;28;20042;-88
2021/07/04 07:03:31;;;;;;;8.88;6.78;;;;;;;;;;5025949;28;20381;-88
2021/07/04 07:06:00;;;;;;;9.30;7.38;;;;;;;;;;5024032;28;20249;-86
2021/07/04 07:08:28;;;;;;;9.80;7.40;;;;;;;;;;5035672;28;20463;-85
2021/07/04 07:10:56;;;;;;;8.02;6.30;;;;;;;;;;5037900;28;20400;-85
2021/07/04 07:13:25;;;;;;;10.18;6.47;;;;;;;;;;5037007;28;20105;-85
2021/07/04 07:15:53;;;;;;;9.50;6.65;;;;;;;;;;5038542;28;20037;-85
2021/07/04 07:18:22;;;;;;;8.77;6.97;;;;;;;;;;5039454;28;20598;-86
2021/07/04 07:20:51;;;;;;;10.63;6.68;;;;;;;;;;5036782;28;20446;-88
2021/07/04 07:23:20;;;;;;;10.20;7.53;;;;;;;;;;5035164;28;20071;-88
2021/07/04 07:25:48;;;;;;;8.95;6.68;;;;;;;;;;5035170;28;20085;-87
2021/07/04 07:28:16;;;;;;;8.30;6.75;;;;;;;;;;5034824;28;20054;-88
2021/07/04 07:30:45;;;;;;;10.18;7.10;;;;;;;;;;5035656;28;20049;-88
2021/07/04 07:33:13;;;;;;;8.82;6.93;;;;;;;;;;5036561;28;20443;-89
2021/07/04 07:35:42;;;;;;;9.32;7.03;;;;;;;;;;5035235;28;20504;-89
2021/07/04 07:38:12;;;;;;;9.25;6.63;;;;;;;;;;5035136;28;20053;-89
2021/07/04 07:40:41;;;;;;;9.13;6.30;;;;;;;;;;5035615;28;20056;-89
2021/07/04 07:43:09;;;;;;;7.70;5.95;;;;;;;;;;5035373;28;22094;-89
2021/07/04 07:45:39;;;;;;;7.45;6.18;;;;;;;;;;5035381;28;20069;-89
2021/07/04 07:48:08;;;;;;;10.57;6.75;;;;;;;;;;5035957;28;20555;-89
2021/07/04 07:50:36;;;;;;;10.85;6.43;;;;;;;;;;5036969;28;20084;-90
2021/07/04 07:53:05;;;;;;;9.43;6.22;;;;;;;;;;5035536;28;20085;-89
2021/07/04 07:55:34;;;;;;;8.82;6.22;;;;;;;;;;5034675;28;20172;-89
2021/07/04 07:58:03;;;;;;;12.10;6.55;;;;;;;;;;5035491;28;20396;-89
2021/07/04 08:00:31;;;;;;;8.00;6.22;;;;;;;;;;5036045;28;20042;-89
2021/07/04 08:03:00;;;;;;;7.90;5.47;;;;;;;;;;5034628;28;20085;-89
2021/07/04 08:05:28;;;;;;;8.15;6.22;;;;;;;;;;5026042;28;20124;-90
2021/07/04 08:07:56;;;;;;;8.63;6.38;;;;;;;;;;5035201;28;20053;-90
2021/07/04 08:10:25;;;;;;;8.43;5.18;;;;;;;;;;5034762;28;20041;-90
2021/07/04 08:12:57;;;;;;;8.20;5.88;;;;;;;;;;5034432;28;20049;-90
2021/07/04 08:15:28;;;;;;;9.15;6.25;;;;;;;;;;5033489;28;20061;-90
2021/07/04 08:17:57;;;;;;;6.05;5.18;;;;;;;;;;5032574;28;20092;-90
2021/07/04 08:20:26;;;;;;;13.93;6.63;;;;;;;;;;5033990;28;20045;-90
2021/07/04 08:22:55;;;;;;;10.50;7.38;;;;;;;;;;5034131;28;20451;-90
2021/07/04 08:25:23;;;;;;;9.80;6.32;;;;;;;;;;5034920;28;20057;-90
2021/07/04 08:27:51;;;;;;;8.35;6.43;;;;;;;;;;5033042;28;20045;-90
2021/07/04 08:30:22;;;;;;;10.27;6.45;;;;;;;;;;5035911;28;20053;-90
2021/07/04 08:32:50;;;;;;;10.25;5.95;;;;;;;;;;5033577;28;20748;-89
2021/07/04 08:35:18;;;;;;;7.18;5.80;;;;;;;;;;5028567;28;20127;-90
2021/07/04 08:37:47;;;;;;;9.75;5.85;;;;;;;;;;5035016;28;20096;-90
2021/07/04 08:40:16;;;;;;;7.40;5.55;;;;;;;;;;5037949;28;20077;-90
2021/07/04 08:42:44;;;;;;;8.27;6.10;;;;;;;;;;5039958;28;20448;-90
2021/07/04 08:45:13;;;;;;;7.18;5.45;;;;;;;;;;5037229;28;20053;-89
2021/07/04 08:47:43;;;;;;;8.20;4.50;;;;;;;;;;5033998;28;20056;-92
2021/07/04 08:50:13;;;;;;;5.78;3.67;;;;;;;;;;5035332;28;20041;-90
2021/07/04 08:52:41;;;;;;;4.57;3.80;;;;;;;;;;5030562;28;20144;-89
2021/07/04 08:55:11;;;;;;;5.25;4.20;;;;;;;;;;5030410;28;20079;-88
2021/07/04 08:57:40;;;;;;;6.70;4.47;;;;;;;;;;5028869;28;20049;-89
2021/07/04 09:00:10;;;;;;;6.90;4.38;;;;;;;;;;5031487;28;20045;-88
2021/07/04 09:02:39;;;;;;;7.00;4.22;;;;;;;;;;5031244;28;20073;-89
2021/07/04 09:05:10;;;;;;;5.00;3.92;;;;;;;;;;5030681;28;20516;-89
2021/07/04 09:07:39;;;;;;;4.63;3.60;;;;;;;;;;5030175;28;20045;-88
2021/07/04 09:10:10;;;;;;;8.20;3.85;;;;;;;;;;5026747;28;20129;-88
2021/07/04 09:12:39;;;;;;;6.38;3.83;;;;;;;;;;5034131;28;20049;-88
2021/07/04 09:15:12;;;;;;;6.53;3.15;;;;;;;;;;5029020;28;20053;-88
2021/07/04 09:17:44;;;;;;;4.68;3.17;;;;;;;;;;5025451;28;20080;-88
2021/07/04 09:20:17;;;;;;;6.00;2.80;;;;;;;;;;5031224;28;20092;-86
2021/07/04 09:22:46;;;;;;;4.88;2.60;;;;;;;;;;5030872;28;20054;-87
2021/07/04 09:25:16;;;;;;;3.30;2.50;;;;;;;;;;5028827;28;20489;-87
2021/07/04 09:28:00;;;;;;;3.05;2.40;;;;;;;;;;5018979;28;20140;-87
2021/07/04 09:30:33;;;;;;;3.67;2.72;;;;;;;;;;5030101;28;20131;-88
2021/07/04 09:33:10;;;;;;;3.75;2.67;;;;;;;;;;5027072;28;20093;-87
2021/07/04 09:35:40;;;;;;;5.82;2.50;;;;;;;;;;5030066;28;20112;-87
2021/07/04 09:38:15;;;;;;;2.97;2.30;;;;;;;;;;5030377;28;20142;-88
2021/07/04 09:40:44;;;;;;;3.15;2.40;;;;;;;;;;5030625;28;20068;-90
2021/07/04 09:43:16;;;;;;;3.70;2.75;;;;;;;;;;5030507;28;20053;-89
2021/07/04 09:45:47;;;;;;;3.78;2.35;;;;;;;;;;5029490;28;20061;-89
2021/07/04 09:48:17;;;;;;;3.97;2.20;;;;;;;;;;5031115;28;20061;-88
2021/07/04 09:50:47;;;;;;;2.95;2.03;;;;;;;;;;5031199;28;20049;-90
2021/07/04 09:53:17;;;;;;;2.83;1.90;;;;;;;;;;5029772;28;20481;-89
2021/07/04 09:55:45;;;;;;;3.05;2.10;;;;;;;;;;5032939;28;20061;-90
2021/07/04 09:58:14;;;;;;;3.30;2.20;;;;;;;;;;5032049;28;20124;-89
2021/07/04 10:00:44;;;;;;;2.50;1.85;;;;;;;;;;5024761;28;20046;-89
2021/07/04 10:03:14;;;;;;;2.45;2.25;;;;;;;;;;5025580;28;20184;-89
2021/07/04 10:05:43;;;;;;;2.55;1.90;;;;;;;;;;5020595;28;20046;-88
2021/07/04 10:08:20;;;;;;;3.05;2.17;;;;;;;;;;5033956;28;20091;-88
2021/07/04 10:10:49;;;;;;;4.00;2.00;;;;;;;;;;5034133;28;20095;-88
2021/07/04 10:13:17;;;;;;;3.42;2.55;;;;;;;;;;5034465;28;20052;-89
2021/07/04 10:15:46;;;;;;;3.95;2.00;;;;;;;;;;5033016;28;20080;-89
2021/07/04 10:18:16;;;;;;;2.95;2.17;;;;;;;;;;5035168;28;20099;-88
2021/07/04 10:20:45;;;;;;;2.70;2.10;;;;;;;;;;5033533;28;20045;-89
2021/07/04 10:23:14;;;;;;;3.72;2.10;;;;;;;;;;5034043;28;20045;-89
2021/07/04 10:25:44;;;;;;;2.40;2.05;;;;;;;;;;5031316;28;20053;-87
2021/07/04 10:28:14;;;;;;;2.83;2.25;;;;;;;;;;5030099;28;20077;-88
2021/07/04 10:30:43;;;;;;;4.38;2.40;;;;;;;;;;5033510;28;20046;-88
2021/07/04 10:33:15;;;;;;;3.45;2.20;;;;;;;;;;5033099;28;20119;-87
2021/07/04 10:35:50;;;;;;;3.30;2.50;;;;;;;;;;5031232;28;20095;-87
2021/07/04 10:38:19;;;;;;;4.28;2.38;;;;;;;;;;5033092;28;20057;-88
2021/07/04 10:40:49;;;;;;;4.07;2.45;;;;;;;;;;5036538;28;20149;-88
2021/07/04 10:43:32;;;;;;;3.63;2.63;;;;;;;;;;5035923;28;20053;-88
2021/07/04 10:46:00;;;;;;;5.20;2.55;;;;;;;;;;5036869;28;20503;-88
2021/07/04 10:48:30;;;;;;;3.08;2.65;;;;;;;;;;5037229;28;20055;-87
2021/07/04 10:51:06;;;;;;;3.33;2.03;;;;;;;;;;5036641;28;20046;-88
2021/07/04 10:53:43;;;;;;;5.32;2.40;;;;;;;;;;5035039;28;20073;-87
2021/07/04 10:56:38;;;;;;;4.53;2.30;;;;;;;;;;5030232;28;20096;-88
2021/07/04 10:59:07;;;;;;;;;;;;;;;;;;4974147;28;20050;-89
2021/07/04 11:01:49;;;;;;;4.50;2.13;;;;;;;;;;5034732;28;19951;-88
2021/07/04 11:04:37;;;;;;;3.08;2.33;;;;;;;;;;5034016;28;20053;-88
2021/07/04 11:07:05;;;;;;;3.35;2.22;;;;;;;;;;5030985;28;20145;-89
2021/07/04 11:09:49;;;;;;;3.80;2.83;;;;;;;;;;5027413;28;20092;-87
2021/07/04 11:12:26;;;;;;;2.65;2.20;;;;;;;;;;5035010;28;20400;-88
2021/07/04 11:15:13;;;;;;;3.03;2.30;;;;;;;;;;5034287;28;20115;-89
2021/07/04 11:18:01;;;;;;;6.35;2.42;;;;;;;;;;5026298;28;20092;-89
2021/07/04 11:20:32;;;;;;;3.88;2.03;;;;;;;;;;5034025;28;20043;-90
2021/07/04 11:23:02;;;;;;;2.53;2.17;;;;;;;;;;5033207;28;20053;-89
2021/07/04 11:25:40;;;;;;;3.20;1.83;;;;;;;;;;5033437;28;20187;-88
2021/07/04 11:28:23;;;;;;;3.50;2.40;;;;;;;;;;5031724;28;20129;-88
2021/07/04 11:30:52;;;;;;;2.83;2.58;;;;;;;;;;5032870;28;20049;-88
2021/07/04 11:33:26;;;;;;;4.63;2.60;;;;;;;;;;5035730;28;20049;-88
2021/07/04 11:35:56;;;;;;;3.30;2.35;;;;;;;;;;5034617;28;20045;-89
2021/07/04 11:38:26;;;;;;;2.78;2.22;;;;;;;;;;5033796;28;20481;-88
2021/07/04 11:40:55;;;;;;;3.33;2.60;;;;;;;;;;5032713;28;20076;-88
2021/07/04 11:43:24;;;;;;;2.72;2.25;;;;;;;;;;5034813;28;20080;-89
2021/07/04 11:45:53;;;;;;;2.40;2.10;;;;;;;;;;5034480;28;20064;-89
2021/07/04 11:48:23;;;;;;;3.08;2.60;;;;;;;;;;5035481;28;20080;-89
2021/07/04 11:50:52;;;;;;;2.80;2.50;;;;;;;;;;5037471;28;20080;-87
2021/07/04 11:53:22;;;;;;;2.95;2.20;;;;;;;;;;5033665;28;20053;-88
2021/07/04 11:55:58;;;;;;;3.08;2.35;;;;;;;;;;5028553;28;20049;-88
2021/07/04 11:58:26;;;;;;;4.63;2.30;;;;;;;;;;5033809;28;20049;-87
2021/07/04 12:00:55;;;;;;;4.03;2.30;;;;;;;;;;5034397;28;20493;-89
2021/07/04 12:03:24;;;;;;;2.83;2.20;;;;;;;;;;5034799;28;20061;-88
2021/07/04 12:05:53;;;;;;;2.85;2.33;;;;;;;;;;5034425;28;20136;-90
2021/07/04 12:08:23;;;;;;;3.15;2.25;;;;;;;;;;5034683;28;20103;-86
2021/07/04 12:10:52;;;;;;;3.10;2.50;;;;;;;;;;5033965;28;20088;-87
2021/07/04 12:13:21;;;;;;;3.42;2.47;;;;;;;;;;5034324;28;20136;-87
2021/07/04 12:15:52;;;;;;;2.97;2.38;;;;;;;;;;5034599;28;20049;-87
2021/07/04 12:18:22;;;;;;;4.00;2.28;;;;;;;;;;5033776;28;20117;-89
2021/07/04 12:20:54;;;;;;;2.65;2.28;;;;;;;;;;5018678;28;20057;-88
2021/07/04 12:23:23;;;;;;;3.17;2.47;;;;;;;;;;5024253;28;20057;-88
2021/07/04 12:25:52;;;;;;;3.70;2.10;;;;;;;;;;5027733;28;20046;-88
2021/07/04 12:28:22;;;;;;;3.00;2.20;;;;;;;;;;5033576;28;20046;-88
2021/07/04 12:30:53;;;;;;;2.90;2.53;;;;;;;;;;5033599;28;20468;-88
2021/07/04 12:33:24;;;;;;;3.25;2.20;;;;;;;;;;5033161;28;20057;-88
2021/07/04 12:35:58;;;;;;;4.20;2.70;;;;;;;;;;5030758;28;20409;-87
2021/07/04 12:38:32;;;;;;;2.75;2.30;;;;;;;;;;5035291;28;20072;-88
2021/07/04 12:41:02;;;;;;;3.08;2.20;;;;;;;;;;5024186;28;20042;-88
2021/07/04 12:43:45;;;;;;;3.15;2.50;;;;;;;;;;4037152;28;10001899;-88
2021/07/04 12:46:16;;;;;;;3.58;2.30;;;;;;;;;;2390082;28;10002117;-87
2021/07/04 12:48:47;;;;;;;5.32;2.85;;;;;;;;;;5034033;28;20046;-87
2021/07/04 12:51:26;;;;;;;4.40;2.95;;;;;;;;;;5035626;28;20432;-88
2021/07/04 12:53:56;;;;;;;2.65;2.38;;;;;;;;;;5030968;28;20067;-87
2021/07/04 12:56:26;;;;;;;2.90;2.28;;;;;;;;;;5034932;28;20481;-87
2021/07/04 12:58:55;;;;;;;3.22;2.42;;;;;;;;;;5032737;28;20045;-87
2021/07/04 13:01:24;;;;;;;2.92;2.60;;;;;;;;;;5033040;28;20088;-87
2021/07/04 13:03:57;;;;;;;3.38;2.50;;;;;;;;;;5021363;28;20046;-87
2021/07/04 13:06:44;;;;;;;5.95;2.70;;;;;;;;;;5021115;28;20049;-88
2021/07/04 13:09:17;;;;;;;4.68;2.70;;;;;;;;;;5025312;28;20086;-87
2021/07/04 13:11:57;;;;;;;2.72;2.22;;;;;;;;;;5014091;28;20042;-87
2021/07/04 13:14:40;;;;;;;3.92;2.40;;;;;;;;;;5015578;28;20053;-89
2021/07/04 13:17:15;;;;;;;4.10;2.40;;;;;;;;;;5023511;28;20038;-86
2021/07/04 13:19:44;;;;;;;3.65;2.42;;;;;;;;;;5022579;28;20265;-88
2021/07/04 13:22:14;;;;;;;3.72;2.65;;;;;;;;;;5033813;28;20456;-88
2021/07/04 13:24:51;;;;;;;3.28;2.35;;;;;;;;;;5035310;28;20058;-87
2021/07/04 13:27:21;;;;;;;3.10;2.40;;;;;;;;;;5023618;28;20046;-87
2021/07/04 13:29:50;;;;;;;4.15;2.20;;;;;;;;;;5029211;28;20582;-88
2021/07/04 13:32:20;;;;;;;2.08;1.88;;;;;;;;;;5015880;28;20096;-87
2021/07/04 13:35:07;;;;;;;2.83;2.13;;;;;;;;;;5025985;28;20087;-88
2021/07/04 13:37:36;;;;;;;3.85;2.58;;;;;;;;;;4995289;28;20050;-88
2021/07/04 13:40:13;;;;;;;4.70;2.40;;;;;;;;;;4999839;28;20049;-87
2021/07/04 13:42:42;;;;;;;3.05;2.65;;;;;;;;;;5015320;28;20168;-87
2021/07/04 13:45:25;;;;;;;4.97;2.50;;;;;;;;;;5020675;28;20116;-87
2021/07/04 13:47:53;;;;;;;4.97;2.70;;;;;;;;;;5013662;28;20056;-87
2021/07/04 13:50:24;;;;;;;3.03;2.28;;;;;;;;;;5032528;28;20444;-87
2021/07/04 13:52:53;;;;;;;3.15;2.40;;;;;;;;;;5029569;28;20140;-87
2021/07/04 13:55:23;;;;;;;4.53;2.05;;;;;;;;;;5015943;28;20131;-87
2021/07/04 13:57:51;;;;;;;5.35;2.35;;;;;;;;;;5032641;28;20049;-87
2021/07/04 14:00:21;;;;;;;3.15;2.58;;;;;;;;;;5026208;28;20056;-86
2021/07/04 14:02:50;;;;;;;2.75;2.40;;;;;;;;;;5019514;28;20567;-87
2021/07/04 14:05:18;;;;;;;3.58;2.30;;;;;;;;;;5032734;28;20057;-87
2021/07/04 14:07:47;;;;;;;4.65;2.30;;;;;;;;;;5032585;28;20072;-87
2021/07/04 14:10:15;;;;;;;6.28;2.53;;;;;;;;;;5033668;28;20083;-87
2021/07/04 14:12:45;;;;;;;3.83;2.70;;;;;;;;;;5032672;28;20389;-88
2021/07/04 14:15:14;;;;;;;7.75;3.40;;;;;;;;;;5032909;28;20136;-88
2021/07/04 14:17:42;;;;;;;2.67;2.40;;;;;;;;;;5024411;28;20038;-87
2021/07/04 14:20:14;;;;;;;5.88;2.60;;;;;;;;;;5032708;28;20045;-87
2021/07/04 14:22:43;;;;;;;3.60;2.72;;;;;;;;;;5033257;28;20045;-88
2021/07/04 14:25:13;;;;;;;4.32;2.53;;;;;;;;;;5032173;28;20097;-87
2021/07/04 14:27:42;;;;;;;4.68;2.67;;;;;;;;;;5032885;28;20087;-87
2021/07/04 14:30:14;;;;;;;4.45;2.22;;;;;;;;;;5032652;28;20059;-87
2021/07/04 14:32:45;;;;;;;3.78;2.55;;;;;;;;;;5031596;28;20448;-87
2021/07/04 14:35:18;;;;;;;4.55;2.22;;;;;;;;;;5035079;28;20152;-88
2021/07/04 14:37:47;;;;;;;4.70;2.75;;;;;;;;;;5037142;28;20104;-87
2021/07/04 14:40:16;;;;;;;4.50;2.67;;;;;;;;;;5033506;28;20060;-88
2021/07/04 14:42:45;;;;;;;3.38;2.58;;;;;;;;;;5032439;28;20042;-88
2021/07/04 14:45:16;;;;;;;2.83;2.30;;;;;;;;;;5031777;28;20049;-87
2021/07/04 14:47:45;;;;;;;3.17;2.67;;;;;;;;;;5032215;28;20081;-88
2021/07/04 14:50:15;;;;;;;3.92;2.67;;;;;;;;;;5036433;28;20088;-88
2021/07/04 14:52:45;;;;;;;4.13;2.15;;;;;;;;;;5039864;28;20072;-88
2021/07/04 14:55:19;;;;;;;5.57;2.22;;;;;;;;;;5033637;28;20071;-87